Time;durP1;ratioP1;P1;durP2;ratioP2;P2;SDS_P1;SDS_P2;PMS_P1;PMS_P2;Temp;Humidity;BMP_temperature;BMP_pressure;BME280_temperature;BME280_humidity;BME280_pressure;Samples;Min_cycle;Max_cycle;Signal;HPM_P1;HPM_P2
2022/04/17 00:00:52;;;;;;;11.43;5.05;;;17.20;99.90;;;;;;5018130;28;20136;-73
2022/04/17 00:03:21;;;;;;;8.93;4.85;;;17.30;99.90;;;;;;5002120;28;20029;-74
2022/04/17 00:05:51;;;;;;;10.80;5.07;;;17.20;99.90;;;;;;5031936;28;20218;-74
2022/04/17 00:08:17;;;;;;;11.75;4.72;;;17.20;99.90;;;;;;5027462;28;20053;-74
2022/04/17 00:10:47;;;;;;;11.80;5.30;;;17.20;99.90;;;;;;5022364;28;20038;-75
2022/04/17 00:13:14;;;;;;;13.15;6.43;;;17.10;99.90;;;;;;4999942;28;20088;-73
2022/04/17 00:15:40;;;;;;;12.35;6.15;;;17.10;99.90;;;;;;5006522;28;20607;-76
2022/04/17 00:18:06;;;;;;;11.80;6.72;;;17.00;99.90;;;;;;5019852;28;20038;-75
2022/04/17 00:20:32;;;;;;;13.07;6.55;;;17.10;99.90;;;;;;5020015;28;20032;-74
2022/04/17 00:22:58;;;;;;;14.52;7.30;;;17.10;99.90;;;;;;5037058;28;20101;-74
2022/04/17 00:25:25;;;;;;;12.65;7.07;;;17.10;99.90;;;;;;5019047;28;20064;-74
2022/04/17 00:27:51;;;;;;;13.77;8.00;;;17.00;99.90;;;;;;5034289;28;20096;-74
2022/04/17 00:30:16;;;;;;;14.05;7.50;;;17.00;99.90;;;;;;5017663;28;20041;-74
2022/04/17 00:32:43;;;;;;;13.10;7.07;;;17.10;99.90;;;;;;5031639;28;20034;-74
2022/04/17 00:35:09;;;;;;;20.45;7.85;;;17.10;99.90;;;;;;5003312;28;20041;-74
2022/04/17 00:37:36;;;;;;;15.85;8.57;;;17.10;99.90;;;;;;5037851;28;20044;-74
2022/04/17 00:40:04;;;;;;;16.20;8.25;;;17.20;99.90;;;;;;5034182;28;20557;-74
2022/04/17 00:42:30;;;;;;;17.00;8.77;;;17.10;99.90;;;;;;5022537;28;20038;-73
2022/04/17 00:44:56;;;;;;;15.43;8.68;;;17.10;99.90;;;;;;5019443;28;20056;-75
2022/04/17 00:47:22;;;;;;;21.35;8.80;;;17.00;99.90;;;;;;5036046;28;20099;-74
2022/04/17 00:49:48;;;;;;;14.65;8.00;;;17.00;99.90;;;;;;5024035;28;20416;-74
2022/04/17 00:52:14;;;;;;;18.45;9.32;;;17.00;99.90;;;;;;5023744;28;20135;-75
2022/04/17 00:54:46;;;;;;;17.88;9.18;;;17.00;99.90;;;;;;5011025;28;20042;-74
2022/04/17 00:57:18;;;;;;;20.52;8.85;;;16.90;99.90;;;;;;5021287;28;20045;-74
2022/04/17 00:59:45;;;;;;;18.17;9.68;;;16.90;99.90;;;;;;5003068;28;20474;-74
2022/04/17 01:02:15;;;;;;;18.45;10.02;;;16.90;99.90;;;;;;5022047;28;20046;-74
2022/04/17 01:04:42;;;;;;;16.38;8.10;;;16.80;99.90;;;;;;5038509;28;20080;-74
2022/04/17 01:07:10;;;;;;;15.27;7.93;;;16.80;99.90;;;;;;5023340;28;20045;-74
2022/04/17 01:09:36;;;;;;;17.67;8.75;;;16.80;99.90;;;;;;5022303;28;20119;-74
2022/04/17 01:12:08;;;;;;;21.23;9.35;;;16.80;99.90;;;;;;5018936;28;20045;-74
2022/04/17 01:14:39;;;;;;;14.68;8.30;;;16.70;99.90;;;;;;5023890;28;20064;-74
2022/04/17 01:17:07;;;;;;;19.88;9.80;;;16.70;99.90;;;;;;5023527;28;20047;-74
2022/04/17 01:19:38;;;;;;;18.90;9.32;;;16.60;99.90;;;;;;5041530;28;20037;-74
2022/04/17 01:22:06;;;;;;;16.15;8.93;;;16.60;99.90;;;;;;5033761;28;20182;-74
2022/04/17 01:27:21;;;;;;;16.92;7.85;;;16.70;99.90;;;;;;5018894;28;20756;-74
2022/04/17 01:29:50;;;;;;;12.40;6.28;;;16.60;99.90;;;;;;5037306;28;20046;-74
2022/04/17 01:32:16;;;;;;;14.50;6.97;;;16.50;99.90;;;;;;5035087;28;20044;-74
2022/04/17 01:34:43;;;;;;;14.98;6.35;;;16.40;99.90;;;;;;5019825;28;20041;-74
2022/04/17 01:37:10;;;;;;;13.43;6.65;;;16.30;99.90;;;;;;5005232;28;20473;-73
2022/04/17 01:39:36;;;;;;;14.20;6.85;;;16.30;99.90;;;;;;5035420;28;20049;-74
2022/04/17 01:42:02;;;;;;;15.27;6.20;;;16.30;99.90;;;;;;5023528;28;20038;-75
2022/04/17 01:44:29;;;;;;;17.42;6.60;;;16.30;99.90;;;;;;5018411;28;20396;-74
2022/04/17 01:46:57;;;;;;;13.10;6.50;;;16.30;99.90;;;;;;5020384;28;20397;-74
2022/04/17 01:49:23;;;;;;;16.20;6.95;;;16.30;99.90;;;;;;5016991;28;20052;-74
2022/04/17 01:51:54;;;;;;;13.68;6.18;;;16.20;99.90;;;;;;4990183;28;20105;-74
2022/04/17 01:54:24;;;;;;;11.05;7.25;;;16.30;99.90;;;;;;5018407;28;20072;-74
2022/04/17 01:56:51;;;;;;;14.25;6.70;;;16.30;99.90;;;;;;5020142;28;20041;-74
2022/04/17 01:59:18;;;;;;;14.38;6.90;;;16.20;99.90;;;;;;5034044;28;20444;-74
2022/04/17 02:01:44;;;;;;;14.40;7.20;;;16.20;99.90;;;;;;5021568;28;20081;-74
2022/04/17 02:04:11;;;;;;;13.55;7.07;;;16.20;99.90;;;;;;5019839;28;20041;-74
2022/04/17 02:06:42;;;;;;;15.45;6.57;;;16.20;99.90;;;;;;5036464;28;21122;-74
2022/04/17 02:09:11;;;;;;;14.82;5.93;;;16.20;99.90;;;;;;5017524;28;20072;-74
2022/04/17 02:11:38;;;;;;;13.80;5.20;;;16.20;99.90;;;;;;5003850;28;20066;-74
2022/04/17 02:14:06;;;;;;;11.55;5.32;;;16.20;99.90;;;;;;5035762;28;20041;-74
2022/04/17 02:16:32;;;;;;;9.27;4.57;;;16.20;99.90;;;;;;5021051;28;20038;-74
2022/04/17 02:19:00;;;;;;;10.60;4.45;;;16.20;99.90;;;;;;5034837;28;20045;-75
2022/04/17 02:21:28;;;;;;;8.73;4.30;;;16.30;99.90;;;;;;5035829;28;20117;-74
2022/04/17 02:23:55;;;;;;;10.13;4.13;;;16.30;99.90;;;;;;5033874;28;20037;-74
2022/04/17 02:26:21;;;;;;;12.25;4.60;;;16.30;99.90;;;;;;5024421;28;20049;-74
2022/04/17 02:28:47;;;;;;;11.35;3.72;;;16.30;99.90;;;;;;5035534;28;20438;-74
2022/04/17 02:31:16;;;;;;;10.20;4.10;;;16.30;99.90;;;;;;5021865;28;20072;-74
2022/04/17 02:33:42;;;;;;;8.00;3.70;;;16.30;99.90;;;;;;5022639;28;20601;-74
2022/04/17 02:36:08;;;;;;;9.13;3.80;;;16.30;99.90;;;;;;5018669;28;20030;-74
2022/04/17 02:38:34;;;;;;;11.23;3.80;;;16.20;99.90;;;;;;5021475;28;20034;-73
2022/04/17 02:41:01;;;;;;;8.10;3.97;;;16.20;99.90;;;;;;5035343;28;20108;-74
2022/04/17 02:43:27;;;;;;;16.33;3.90;;;16.20;99.90;;;;;;5019219;28;20034;-74
2022/04/17 02:45:54;;;;;;;11.32;3.85;;;16.20;99.90;;;;;;5020762;28;20083;-74
2022/04/17 02:48:20;;;;;;;12.93;3.88;;;16.20;99.90;;;;;;5006233;28;20112;-74
2022/04/17 02:50:47;;;;;;;10.05;3.55;;;16.20;99.90;;;;;;5040303;28;20041;-73
2022/04/17 02:53:14;;;;;;;10.60;3.42;;;16.20;99.90;;;;;;5017813;28;20029;-74
2022/04/17 02:55:40;;;;;;;11.85;3.25;;;16.20;99.90;;;;;;5041238;28;20081;-74
2022/04/17 02:58:07;;;;;;;8.13;2.78;;;16.10;99.90;;;;;;5021269;28;20080;-74
2022/04/17 03:00:33;;;;;;;11.45;3.15;;;16.10;99.90;;;;;;5022750;28;20084;-74
2022/04/17 03:06:09;;;;;;;8.68;3.20;;;16.10;99.90;;;;;;4986980;28;20034;-74
2022/04/17 03:08:36;;;;;;;7.20;3.33;;;16.10;99.90;;;;;;4988058;28;20454;-74
2022/04/17 03:11:03;;;;;;;9.80;2.90;;;16.10;99.90;;;;;;5002946;28;20038;-74
2022/04/17 03:13:29;;;;;;;11.55;2.90;;;16.10;99.90;;;;;;5019651;28;20034;-74
2022/04/17 03:15:55;;;;;;;10.88;3.55;;;16.10;99.90;;;;;;5011873;28;20088;-74
2022/04/17 03:18:21;;;;;;;7.35;3.00;;;16.10;99.90;;;;;;4985853;28;20064;-75
2022/04/17 03:20:47;;;;;;;10.00;2.88;;;16.10;99.90;;;;;;5020761;28;20040;-74
2022/04/17 03:23:14;;;;;;;7.80;2.83;;;16.20;99.90;;;;;;5038167;28;20124;-74
2022/04/17 03:25:40;;;;;;;9.45;2.83;;;16.20;99.90;;;;;;5024953;28;20512;-74
2022/04/17 03:28:08;;;;;;;10.00;2.92;;;16.20;99.90;;;;;;5019741;28;20045;-75
2022/04/17 03:30:33;;;;;;;8.77;2.90;;;16.30;99.90;;;;;;5034927;28;20472;-74
2022/04/17 03:33:01;;;;;;;12.30;2.97;;;16.20;99.90;;;;;;5036788;28;20045;-74
2022/04/17 03:35:27;;;;;;;8.45;2.95;;;16.20;99.90;;;;;;5022518;28;20106;-74
2022/04/17 03:37:53;;;;;;;10.30;3.13;;;16.30;99.90;;;;;;5035598;28;20037;-73
2022/04/17 03:40:19;;;;;;;8.32;2.50;;;16.40;99.90;;;;;;5017311;28;20045;-74
2022/04/17 03:42:45;;;;;;;9.32;3.05;;;16.40;99.90;;;;;;5000319;28;20111;-74
2022/04/17 03:45:14;;;;;;;11.98;3.40;;;16.30;99.90;;;;;;5018259;28;20053;-74
2022/04/17 03:47:41;;;;;;;11.85;2.80;;;16.30;99.90;;;;;;5013619;28;20412;-75
2022/04/17 03:50:07;;;;;;;7.85;2.67;;;16.20;99.90;;;;;;5037777;28;20124;-73
2022/04/17 03:52:47;;;;;;;8.60;2.67;;;16.10;99.90;;;;;;5020848;28;20049;-73
2022/04/17 03:55:14;;;;;;;11.63;3.00;;;16.20;99.90;;;;;;5025405;28;20037;-75
2022/04/17 03:57:41;;;;;;;8.23;3.05;;;16.10;99.90;;;;;;5032596;28;20104;-73
2022/04/17 04:00:11;;;;;;;8.85;3.10;;;16.10;99.90;;;;;;5036021;28;20105;-73
2022/04/17 04:02:38;;;;;;;6.60;2.97;;;16.00;99.90;;;;;;5019656;28;20048;-75
2022/04/17 04:05:08;;;;;;;8.32;3.20;;;16.00;99.90;;;;;;5019283;28;20054;-74
2022/04/17 04:07:34;;;;;;;8.65;3.10;;;16.00;99.90;;;;;;5022295;28;20132;-74
2022/04/17 04:10:01;;;;;;;7.68;3.30;;;16.00;99.90;;;;;;5016544;28;20046;-74
2022/04/17 04:12:28;;;;;;;11.18;3.22;;;16.00;99.90;;;;;;5015390;28;20034;-74
2022/04/17 04:14:53;;;;;;;11.40;3.25;;;16.00;99.90;;;;;;5038712;28;20029;-74
2022/04/17 04:17:19;;;;;;;9.35;3.00;;;16.00;99.90;;;;;;5034415;28;20059;-75
2022/04/17 04:19:45;;;;;;;8.65;2.78;;;15.90;99.90;;;;;;5015686;28;20133;-74
2022/04/17 04:22:11;;;;;;;7.50;2.90;;;15.90;99.90;;;;;;5018653;28;20060;-76
2022/04/17 04:24:37;;;;;;;11.10;3.25;;;15.90;99.90;;;;;;5000363;28;20046;-74
2022/04/17 04:29:49;;;;;;;11.00;2.70;;;16.00;99.90;;;;;;5023407;28;20469;-75
2022/04/17 04:32:20;;;;;;;8.32;2.70;;;16.00;99.90;;;;;;5001343;28;20044;-74
2022/04/17 04:34:46;;;;;;;7.28;2.42;;;16.00;99.90;;;;;;5021586;28;20123;-74
2022/04/17 04:37:12;;;;;;;12.00;3.00;;;16.00;99.90;;;;;;5035386;28;20049;-74
2022/04/17 04:39:38;;;;;;;8.05;2.58;;;16.00;99.90;;;;;;5021725;28;20050;-74
2022/04/17 04:42:04;;;;;;;7.25;3.50;;;16.00;99.90;;;;;;5020744;28;20088;-74
2022/04/17 04:44:30;;;;;;;13.60;3.90;;;16.20;99.90;;;;;;5018316;28;20044;-74
2022/04/17 04:46:58;;;;;;;11.68;3.95;;;16.00;99.90;;;;;;5007181;28;20041;-74
2022/04/17 04:49:30;;;;;;;9.82;3.67;;;15.80;99.90;;;;;;5018036;28;20040;-74
2022/04/17 04:52:03;;;;;;;9.05;4.03;;;15.70;99.90;;;;;;5018007;28;20053;-73
2022/04/17 04:54:29;;;;;;;;;;;15.80;99.90;;;;;;5032754;28;20046;-74
2022/04/17 04:56:56;;;;;;;12.82;4.60;;;15.70;99.90;;;;;;5040593;28;19913;-74
2022/04/17 04:59:22;;;;;;;11.65;4.95;;;15.80;99.90;;;;;;5032731;28;20552;-75
2022/04/17 05:01:51;;;;;;;13.73;4.90;;;15.80;99.90;;;;;;5022007;28;20042;-73
2022/04/17 05:04:22;;;;;;;11.25;4.47;;;15.80;99.90;;;;;;5018896;28;20099;-74
2022/04/17 05:06:48;;;;;;;9.63;4.30;;;15.60;99.90;;;;;;5019839;28;20034;-74
2022/04/17 05:09:14;;;;;;;8.93;4.00;;;15.60;99.90;;;;;;5001570;28;20046;-74
2022/04/17 05:11:41;;;;;;;8.82;3.58;;;15.60;99.90;;;;;;5014428;28;20142;-73
2022/04/17 05:14:09;;;;;;;9.35;3.47;;;15.70;99.90;;;;;;5018370;28;20052;-74
2022/04/17 05:16:36;;;;;;;9.30;3.42;;;15.70;99.90;;;;;;5032237;28;20157;-74
2022/04/17 05:19:21;;;;;;;11.23;3.90;;;15.70;99.90;;;;;;5036952;28;20539;-73
2022/04/17 05:21:48;;;;;;;10.20;3.80;;;15.70;99.90;;;;;;5018078;28;20447;-75
2022/04/17 05:24:15;;;;;;;7.88;3.22;;;15.70;99.90;;;;;;5016898;28;20057;-74
2022/04/17 05:26:41;;;;;;;9.48;3.00;;;15.70;99.90;;;;;;5005105;28;20048;-73
2022/04/17 05:29:07;;;;;;;7.95;2.90;;;15.80;99.90;;;;;;5030249;28;20475;-74
2022/04/17 05:31:34;;;;;;;10.60;2.85;;;15.80;99.90;;;;;;5018510;28;20045;-74
2022/04/17 05:34:00;;;;;;;7.93;2.67;;;15.90;99.90;;;;;;5022296;28;20029;-73
2022/04/17 05:36:26;;;;;;;6.03;2.78;;;15.90;99.90;;;;;;5037628;28;20084;-75
2022/04/17 05:38:55;;;;;;;8.43;2.67;;;15.90;99.90;;;;;;5008266;28;20057;-74
2022/04/17 05:41:29;;;;;;;8.23;3.15;;;15.90;99.90;;;;;;5006002;28;20559;-74
2022/04/17 05:43:57;;;;;;;8.35;3.30;;;16.00;99.90;;;;;;5004900;28;20164;-74
2022/04/17 05:46:25;;;;;;;9.75;3.13;;;16.00;99.90;;;;;;5039193;28;20038;-74
2022/04/17 05:48:50;;;;;;;12.60;3.55;;;16.00;99.90;;;;;;5023107;28;20048;-73
2022/04/17 05:51:17;;;;;;;11.60;3.20;;;16.00;99.90;;;;;;5025446;28;20045;-73
2022/04/17 05:53:43;;;;;;;8.45;3.13;;;16.10;99.90;;;;;;5026212;28;20523;-74
2022/04/17 05:56:09;;;;;;;8.13;2.78;;;16.10;99.90;;;;;;5036237;28;20439;-74
2022/04/17 05:58:36;;;;;;;8.25;3.38;;;16.20;99.90;;;;;;5036473;28;20046;-75
2022/04/17 06:01:02;;;;;;;6.13;2.17;;;16.20;99.90;;;;;;5003546;28;20401;-74
2022/04/17 06:03:29;;;;;;;7.18;2.50;;;16.30;99.90;;;;;;5036929;28;20084;-74
2022/04/17 06:05:56;;;;;;;8.02;2.67;;;16.40;99.90;;;;;;5023503;28;20037;-74
2022/04/17 06:08:23;;;;;;;9.65;3.00;;;16.30;99.90;;;;;;5016660;28;20644;-74
2022/04/17 06:10:50;;;;;;;9.85;3.10;;;16.30;99.90;;;;;;5024421;28;20056;-75
2022/04/17 06:13:16;;;;;;;10.68;3.13;;;16.40;99.90;;;;;;5026576;28;20044;-76
2022/04/17 06:15:42;;;;;;;6.45;2.75;;;16.40;99.90;;;;;;5041474;28;20715;-75
2022/04/17 06:18:09;;;;;;;10.30;3.30;;;16.40;99.90;;;;;;5037357;28;20050;-74
2022/04/17 06:20:35;;;;;;;12.85;2.90;;;16.50;99.90;;;;;;5037887;28;20037;-74
2022/04/17 06:23:01;;;;;;;6.82;3.25;;;16.60;99.90;;;;;;5022617;28;20038;-74
2022/04/17 06:25:27;;;;;;;11.10;3.15;;;16.60;99.90;;;;;;5009905;28;20045;-74
2022/04/17 06:27:56;;;;;;;7.93;2.90;;;16.70;99.90;;;;;;5023423;28;20520;-74
2022/04/17 06:30:23;;;;;;;7.07;3.17;;;16.70;99.90;;;;;;5025331;28;20425;-74
2022/04/17 06:32:50;;;;;;;6.72;3.10;;;16.70;99.90;;;;;;5040385;28;20055;-74
2022/04/17 06:35:17;;;;;;;7.82;2.70;;;16.80;99.90;;;;;;5016002;28;20552;-73
2022/04/17 06:37:52;;;;;;;9.35;3.55;;;16.80;99.90;;;;;;5005997;28;20037;-73
2022/04/17 06:40:23;;;;;;;9.40;3.03;;;16.90;99.90;;;;;;5021181;28;20125;-74
2022/04/17 06:42:51;;;;;;;11.80;3.10;;;17.00;99.90;;;;;;5004203;28;20104;-74
2022/04/17 06:45:18;;;;;;;10.85;3.25;;;17.10;99.90;;;;;;5035820;28;20076;-74
2022/04/17 06:47:46;;;;;;;9.55;3.10;;;17.20;99.90;;;;;;5016474;28;20434;-76
2022/04/17 06:50:14;;;;;;;8.13;3.03;;;17.20;99.90;;;;;;5001689;28;20473;-74
2022/04/17 06:52:40;;;;;;;11.25;3.10;;;17.30;99.90;;;;;;5035628;28;20042;-75
2022/04/17 06:55:11;;;;;;;8.93;2.70;;;17.50;99.90;;;;;;5005341;28;20036;-75
2022/04/17 06:57:41;;;;;;;10.35;3.28;;;17.60;99.90;;;;;;5040269;28;20120;-74
2022/04/17 07:00:09;;;;;;;8.18;3.15;;;17.70;99.90;;;;;;5022387;28;20041;-74
2022/04/17 07:02:40;;;;;;;10.63;3.35;;;17.80;99.90;;;;;;5001773;28;20050;-74
2022/04/17 07:05:07;;;;;;;11.50;2.90;;;17.90;99.90;;;;;;5018730;28;20440;-75
2022/04/17 07:07:33;;;;;;;8.93;3.63;;;18.10;99.90;;;;;;5020451;28;20026;-74
2022/04/17 07:10:01;;;;;;;7.60;3.70;;;18.10;99.90;;;;;;5004032;28;20037;-74
2022/04/17 07:12:29;;;;;;;12.55;4.45;;;18.20;99.90;;;;;;4986760;28;20827;-74
2022/04/17 07:14:55;;;;;;;14.88;4.28;;;18.30;99.90;;;;;;5037025;28;20566;-75
2022/04/17 07:17:21;;;;;;;10.10;4.15;;;18.40;99.90;;;;;;5022321;28;20060;-73
2022/04/17 07:19:48;;;;;;;8.90;3.80;;;18.50;99.90;;;;;;5038807;28;20496;-74
2022/04/17 07:22:14;;;;;;;6.88;3.45;;;18.60;99.90;;;;;;5004284;28;20053;-74
2022/04/17 07:24:43;;;;;;;7.53;2.80;;;18.70;99.90;;;;;;5001135;28;20488;-74
2022/04/17 07:27:16;;;;;;;8.32;2.53;;;18.80;99.90;;;;;;5015783;28;20048;-74
2022/04/17 07:29:43;;;;;;;;;;;18.90;99.90;;;;;;4991515;28;20097;-74
2022/04/17 07:32:10;;;;;;;9.05;2.83;;;19.00;99.90;;;;;;5001667;28;19917;-73
2022/04/17 07:34:36;;;;;;;8.57;2.38;;;19.00;99.90;;;;;;5030010;28;20381;-73
2022/04/17 07:37:02;;;;;;;7.30;2.40;;;19.00;99.90;;;;;;5021710;28;20475;-73
2022/04/17 07:39:28;;;;;;;8.98;2.78;;;19.10;99.90;;;;;;5020661;28;20077;-74
2022/04/17 07:41:56;;;;;;;7.45;2.63;;;19.20;99.90;;;;;;5023575;28;20049;-74
2022/04/17 07:44:25;;;;;;;7.18;2.70;;;19.30;99.90;;;;;;5021794;28;21242;-74
2022/04/17 07:46:51;;;;;;;8.55;2.75;;;19.40;99.90;;;;;;5017633;28;20492;-74
2022/04/17 07:49:18;;;;;;;8.80;2.63;;;19.50;99.90;;;;;;5044844;28;20049;-73
2022/04/17 07:51:44;;;;;;;7.38;2.58;;;19.50;99.90;;;;;;5034979;28;20045;-74
2022/04/17 07:54:11;;;;;;;6.88;3.10;;;19.50;99.90;;;;;;5032364;28;20045;-74
2022/04/17 07:56:37;;;;;;;5.13;1.92;;;19.50;99.90;;;;;;5039126;28;20160;-75
2022/04/17 07:59:04;;;;;;;6.03;2.70;;;19.30;99.90;;;;;;4999650;28;20046;-74
2022/04/17 08:01:33;;;;;;;8.77;2.88;;;19.40;99.90;;;;;;4999844;28;20141;-75
2022/04/17 08:03:59;;;;;;;7.00;2.70;;;19.50;99.90;;;;;;4997824;28;20127;-73
2022/04/17 08:06:26;;;;;;;10.02;2.92;;;19.60;99.90;;;;;;4985089;28;20050;-74
2022/04/17 08:08:52;;;;;;;8.20;2.75;;;19.70;99.80;;;;;;5002325;28;20069;-76
2022/04/17 08:11:20;;;;;;;7.25;2.78;;;19.80;99.50;;;;;;4997930;28;20030;-73
2022/04/17 08:13:47;;;;;;;9.90;2.53;;;19.70;99.50;;;;;;5000219;28;20042;-75
2022/04/17 08:16:14;;;;;;;7.60;2.55;;;19.80;99.50;;;;;;4997198;28;20030;-75
2022/04/17 08:18:40;;;;;;;10.63;2.97;;;19.80;99.30;;;;;;5001445;28;20113;-74
2022/04/17 08:21:06;;;;;;;7.15;2.38;;;19.80;99.20;;;;;;4999584;28;20037;-73
2022/04/17 08:23:37;;;;;;;9.10;2.45;;;19.70;98.80;;;;;;4994733;28;20041;-74
2022/04/17 08:26:05;;;;;;;7.25;2.63;;;19.80;98.80;;;;;;4998247;28;20486;-74
2022/04/17 08:28:33;;;;;;;6.32;2.50;;;19.90;98.80;;;;;;5013790;28;20068;-74
2022/04/17 08:30:59;;;;;;;6.65;2.75;;;20.00;98.60;;;;;;5001644;28;20069;-73
2022/04/17 08:33:26;;;;;;;7.70;3.53;;;20.70;98.50;;;;;;5014610;28;20517;-72
2022/04/17 08:35:55;;;;;;;9.95;3.55;;;22.60;97.20;;;;;;5023661;28;20089;-75
2022/04/17 08:38:22;;;;;;;7.70;2.97;;;24.10;95.40;;;;;;4999747;28;20090;-74
2022/04/17 08:40:49;;;;;;;9.35;3.45;;;24.90;94.00;;;;;;4985284;28;20445;-75
2022/04/17 08:43:18;;;;;;;8.77;3.47;;;25.80;93.20;;;;;;5012952;28;20077;-73
2022/04/17 08:45:50;;;;;;;7.60;3.45;;;26.60;92.40;;;;;;5015623;28;20447;-75
2022/04/17 08:48:17;;;;;;;;;;;26.80;91.40;;;;;;5012727;28;20105;-75
2022/04/17 08:50:43;;;;;;;10.50;4.95;;;26.30;92.00;;;;;;5016593;28;19917;-74
2022/04/17 08:53:14;;;;;;;11.13;4.43;;;26.40;91.90;;;;;;4996796;28;20049;-74
2022/04/17 08:55:40;;;;;;;11.98;3.85;;;26.70;91.40;;;;;;5011602;28;20538;-75
2022/04/17 08:58:06;;;;;;;10.32;4.32;;;27.30;91.10;;;;;;5012732;28;20042;-74
2022/04/17 09:00:32;;;;;;;10.75;4.22;;;27.60;90.90;;;;;;4984251;28;20083;-74
2022/04/17 09:02:59;;;;;;;11.65;4.00;;;27.40;90.20;;;;;;5001263;28;20046;-74
2022/04/17 09:05:27;;;;;;;9.93;3.95;;;26.50;90.90;;;;;;4996896;28;20034;-74
2022/04/17 09:07:54;;;;;;;7.75;4.65;;;26.70;91.30;;;;;;5010686;28;20118;-73
2022/04/17 09:10:28;;;;;;;7.88;4.03;;;26.40;91.40;;;;;;5018972;28;20061;-73
2022/04/17 09:12:59;;;;;;;9.13;4.28;;;26.50;91.50;;;;;;5021424;28;20065;-74
2022/04/17 09:15:26;;;;;;;9.45;4.00;;;25.90;91.50;;;;;;5018532;28;20034;-74
2022/04/17 09:17:53;;;;;;;8.93;4.03;;;25.10;92.10;;;;;;4984991;28;20046;-74
2022/04/17 09:20:22;;;;;;;10.85;4.35;;;26.10;91.90;;;;;;5015768;28;20048;-74
2022/04/17 09:22:48;;;;;;;10.65;4.18;;;26.80;91.00;;;;;;5017712;28;20042;-74
2022/04/17 09:25:15;;;;;;;13.38;4.00;;;26.70;90.90;;;;;;5000791;28;20038;-76
2022/04/17 09:28:01;;;;;;;10.48;4.13;;;27.30;90.50;;;;;;4969580;28;20494;-75
2022/04/17 09:30:42;;;;;;;10.50;4.40;;;27.60;90.00;;;;;;5017266;28;20042;-74
2022/04/17 09:33:10;;;;;;;11.43;4.38;;;27.20;90.20;;;;;;5001672;28;20042;-74
2022/04/17 09:35:37;;;;;;;12.15;4.35;;;27.00;90.10;;;;;;5000987;28;20050;-73
2022/04/17 09:38:08;;;;;;;10.75;4.50;;;27.70;90.10;;;;;;5001908;28;20409;-74
2022/04/17 09:40:37;;;;;;;12.52;4.70;;;27.10;90.50;;;;;;4981958;28;20053;-74
2022/04/17 09:43:17;;;;;;;8.30;4.78;;;26.20;91.10;;;;;;5013002;28;20049;-75
2022/04/17 09:46:04;;;;;;;9.85;4.63;;;27.20;90.90;;;;;;5005655;28;20046;-74
2022/04/17 09:48:36;;;;;;;9.90;4.00;;;27.40;90.60;;;;;;4982967;28;20035;-74
2022/04/17 09:51:25;;;;;;;13.23;4.32;;;27.20;90.40;;;;;;5000989;28;20508;-75
2022/04/17 09:54:03;;;;;;;8.15;3.75;;;27.70;90.20;;;;;;4998545;28;20049;-74
2022/04/17 09:56:34;;;;;;;8.50;3.40;;;27.70;89.40;;;;;;5006670;28;20030;-73
2022/04/17 09:59:14;;;;;;;7.63;3.37;;;27.40;90.10;;;;;;5020861;28;20981;-74
2022/04/17 10:01:41;;;;;;;14.50;3.83;;;27.80;90.00;;;;;;5018490;28;20038;-74
2022/04/17 10:04:07;;;;;;;6.07;3.10;;;28.30;89.30;;;;;;5001662;28;20041;-74
2022/04/17 10:06:34;;;;;;;14.18;3.22;;;28.40;88.60;;;;;;5038740;28;20092;-74
2022/04/17 10:09:01;;;;;;;7.70;3.03;;;28.20;88.40;;;;;;5001020;28;20618;-74
2022/04/17 10:11:29;;;;;;;7.00;2.90;;;27.80;87.70;;;;;;5018744;28;20451;-74
2022/04/17 10:13:57;;;;;;;7.13;2.80;;;27.50;87.60;;;;;;5033785;28;20042;-75
2022/04/17 10:16:24;;;;;;;7.75;2.45;;;27.50;88.60;;;;;;5036387;28;20489;-74
2022/04/17 10:18:50;;;;;;;6.68;2.40;;;27.10;88.20;;;;;;5012230;28;20124;-74
2022/04/17 10:21:23;;;;;;;6.93;2.53;;;26.10;88.60;;;;;;5022084;28;20073;-73
2022/04/17 10:23:56;;;;;;;4.57;2.15;;;25.40;89.60;;;;;;5023749;28;20038;-74
2022/04/17 10:26:25;;;;;;;9.38;2.30;;;24.90;90.10;;;;;;5022531;28;20034;-72
2022/04/17 10:28:55;;;;;;;5.25;2.70;;;25.10;90.30;;;;;;5034735;28;20092;-74
2022/04/17 10:31:21;;;;;;;6.78;2.50;;;25.20;90.10;;;;;;5022876;28;20363;-74
2022/04/17 10:34:09;;;;;;;7.43;2.20;;;24.90;90.10;;;;;;5002606;28;20057;-74
2022/04/17 10:36:56;;;;;;;5.65;2.20;;;24.90;90.00;;;;;;5035588;28;20068;-73
2022/04/17 10:39:38;;;;;;;8.18;2.42;;;24.40;91.00;;;;;;5005517;28;20051;-74
2022/04/17 10:42:08;;;;;;;10.77;2.10;;;25.10;91.20;;;;;;5023050;28;20079;-73
2022/04/17 10:44:41;;;;;;;5.18;1.90;;;25.70;90.70;;;;;;5017750;28;20493;-74
2022/04/17 10:47:15;;;;;;;9.57;2.30;;;26.00;90.50;;;;;;5037516;28;20069;-73
2022/04/17 10:50:07;;;;;;;4.68;2.30;;;25.80;90.50;;;;;;5021535;28;20073;-74
2022/04/17 10:52:34;;;;;;;4.88;2.28;;;26.10;89.80;;;;;;5024515;28;20048;-73
2022/04/17 10:55:11;;;;;;;9.50;2.35;;;25.90;90.20;;;;;;5037206;28;20046;-74
2022/04/17 10:57:45;;;;;;;6.50;2.30;;;26.10;90.10;;;;;;4985109;28;20044;-74
2022/04/17 11:00:37;;;;;;;8.63;2.50;;;26.50;90.10;;;;;;5037539;28;20046;-74
2022/04/17 11:03:10;;;;;;;6.68;2.72;;;26.50;90.10;;;;;;5010665;28;20416;-75
2022/04/17 11:08:25;;;;;;;9.80;3.58;;;26.70;89.10;;;;;;5014652;28;20049;-73
2022/04/17 11:10:56;;;;;;;7.68;2.38;;;26.70;89.20;;;;;;5016188;28;20038;-73
2022/04/17 11:13:26;;;;;;;7.28;2.17;;;26.60;89.20;;;;;;5021335;28;20045;-74
2022/04/17 11:15:56;;;;;;;6.82;2.10;;;26.90;88.20;;;;;;5038799;28;20047;-74
2022/04/17 11:18:29;;;;;;;9.05;2.70;;;26.60;89.00;;;;;;5020240;28;20211;-74
2022/04/17 11:20:56;;;;;;;8.10;2.58;;;26.90;88.40;;;;;;5000180;28;20041;-74
2022/04/17 11:23:49;;;;;;;9.10;2.08;;;27.00;88.20;;;;;;5035997;28;20665;-74
2022/04/17 11:26:16;;;;;;;8.40;1.98;;;26.60;88.00;;;;;;5019507;28;20087;-73
2022/04/17 11:28:41;;;;;;;9.32;2.47;;;26.90;87.70;;;;;;5022869;28;20033;-73
2022/04/17 11:31:08;;;;;;;9.48;2.22;;;27.10;87.10;;;;;;5033172;28;20096;-74
2022/04/17 11:33:34;;;;;;;9.50;2.15;;;27.50;86.90;;;;;;5035925;28;20037;-75
2022/04/17 11:36:02;;;;;;;8.30;2.33;;;27.60;86.40;;;;;;5035568;28;20508;-73
2022/04/17 11:38:28;;;;;;;8.60;2.20;;;28.10;85.60;;;;;;5041655;28;20348;-74
2022/04/17 11:40:54;;;;;;;11.23;2.10;;;28.50;85.20;;;;;;5022467;28;20056;-74
2022/04/17 11:43:21;;;;;;;5.05;2.33;;;28.50;84.50;;;;;;5018375;28;20057;-74
2022/04/17 11:45:47;;;;;;;6.75;2.13;;;28.40;84.00;;;;;;5024903;28;20041;-75
2022/04/17 11:48:16;;;;;;;7.80;2.38;;;28.20;83.90;;;;;;5001836;28;20797;-74
2022/04/17 11:50:43;;;;;;;5.55;1.95;;;28.10;83.70;;;;;;5018656;28;20041;-73
2022/04/17 11:53:15;;;;;;;13.95;4.57;;;28.30;82.90;;;;;;5029908;28;20041;-74
2022/04/17 11:55:44;;;;;;;14.70;4.70;;;28.30;82.80;;;;;;5022620;28;20060;-73
2022/04/17 11:58:25;;;;;;;8.77;3.00;;;28.20;82.20;;;;;;5035193;28;20045;-73
2022/04/17 12:01:01;;;;;;;8.27;4.13;;;28.30;82.60;;;;;;5020719;28;20105;-75
2022/04/17 12:03:39;;;;;;;9.55;2.20;;;28.40;82.40;;;;;;5032599;28;20037;-74
2022/04/17 12:06:06;;;;;;;6.60;2.20;;;28.60;82.00;;;;;;5033641;28;20486;-74
2022/04/17 12:08:37;;;;;;;9.70;2.60;;;28.60;82.00;;;;;;5018979;28;20052;-74
2022/04/17 12:11:07;;;;;;;9.43;2.90;;;29.10;81.20;;;;;;5015678;28;20546;-74
2022/04/17 12:13:33;;;;;;;10.00;3.03;;;29.20;80.10;;;;;;5036714;28;20123;-75
2022/04/17 12:16:05;;;;;;;9.32;2.78;;;29.60;79.90;;;;;;5033466;28;20172;-74
2022/04/17 12:18:30;;;;;;;;;;;29.60;79.20;;;;;;5018781;28;20741;-74
2022/04/17 12:21:06;;;;;;;8.23;2.83;;;29.00;79.10;;;;;;5031467;28;19944;-74
2022/04/17 12:23:35;;;;;;;8.05;2.40;;;28.60;79.00;;;;;;5002759;28;20038;-74
2022/04/17 12:26:05;;;;;;;5.30;2.00;;;28.30;79.30;;;;;;4997311;28;20143;-74
2022/04/17 12:28:31;;;;;;;6.72;2.50;;;28.30;78.40;;;;;;5019243;28;21396;-74
2022/04/17 12:30:57;;;;;;;6.53;2.67;;;28.60;79.00;;;;;;5036024;28;20060;-74
2022/04/17 12:33:27;;;;;;;9.40;2.63;;;29.00;79.10;;;;;;5017017;28;20164;-74
2022/04/17 12:36:06;;;;;;;8.40;2.50;;;29.00;77.70;;;;;;5034450;28;20057;-73
2022/04/17 12:38:37;;;;;;;7.72;2.35;;;29.00;78.10;;;;;;5016637;28;20037;-75
2022/04/17 12:41:17;;;;;;;10.73;3.17;;;29.40;78.50;;;;;;5032403;28;20442;-74
2022/04/17 12:43:48;;;;;;;8.53;3.37;;;29.40;78.90;;;;;;5001832;28;20029;-74
2022/04/17 12:46:32;;;;;;;10.75;3.17;;;29.10;79.00;;;;;;5031374;28;20025;-74
2022/04/17 12:49:07;;;;;;;6.82;3.03;;;28.90;80.00;;;;;;5032255;28;20114;-74
2022/04/17 12:51:34;;;;;;;9.20;3.30;;;28.50;80.60;;;;;;5019536;28;20053;-74
2022/04/17 12:54:02;;;;;;;6.90;2.47;;;28.50;80.70;;;;;;5035784;28;20053;-75
2022/04/17 12:56:28;;;;;;;8.38;3.38;;;28.50;81.20;;;;;;5004482;28;20030;-74
2022/04/17 12:58:57;;;;;;;9.02;3.17;;;28.00;81.80;;;;;;5019050;28;20088;-74
2022/04/17 13:01:24;;;;;;;7.25;3.80;;;27.50;82.20;;;;;;5033452;28;20037;-75